Crawfordsville, Oregon
Current Conditions -  °F | °C
As of 11:55 AM on Saturday 25 Oct 2014 (Local Time) from KCVO Reporting Station
Overcast Overcast  
Wind Chill: 61°   Ceiling: 5000
Heat Index: 61°   Visibility: 10mi
Dew Point: 54°   Wind: 28mph
Humidity: 77%   Direction: 190°S
Pressure: 29.42"   Gusts: 37mph
Location:  44.36°N, 122.86°W
Report Text: KCVO 251855Z AUTO 19024G32KT 10SM SCT048 BKN050 OVC065 16/12 A2942 RMK AO1
Loading
Personal Weather Stations






























Interactive Weather Map
Tropical Storm Tracking
New forecast layout! Learn more

10-Day Weather Forecast

Advertisements
Track Severe Weather on mobile